sensor_id;sensor_type;location;lat;lon;timestamp;P1;durP1;ratioP1;P2;durP2;ratioP2
76073;SDS011;64776;42.636;24.358;2023-06-10T00:01:21;20.52;;;7.93;;
76073;SDS011;64776;42.636;24.358;2023-06-10T00:04:22;19.98;;;7.05;;
76073;SDS011;64776;42.636;24.358;2023-06-10T00:07:22;18.48;;;8.50;;
76073;SDS011;64776;42.636;24.358;2023-06-10T00:10:25;25.70;;;7.53;;
76073;SDS011;64776;42.636;24.358;2023-06-10T00:13:25;25.33;;;8.32;;
76073;SDS011;64776;42.636;24.358;2023-06-10T00:16:26;27.92;;;8.60;;
76073;SDS011;64776;42.636;24.358;2023-06-10T00:19:27;29.27;;;8.65;;
76073;SDS011;64776;42.636;24.358;2023-06-10T00:22:28;34.90;;;9.55;;
76073;SDS011;64776;42.636;24.358;2023-06-10T00:25:30;48.50;;;9.82;;
76073;SDS011;64776;42.636;24.358;2023-06-10T00:28:31;26.88;;;8.35;;
76073;SDS011;64776;42.636;24.358;2023-06-10T00:31:33;32.42;;;9.82;;
76073;SDS011;64776;42.636;24.358;2023-06-10T00:34:34;29.52;;;9.15;;
76073;SDS011;64776;42.636;24.358;2023-06-10T00:37:35;29.88;;;9.57;;
76073;SDS011;64776;42.636;24.358;2023-06-10T00:40:43;32.63;;;8.15;;
76073;SDS011;64776;42.636;24.358;2023-06-10T00:43:44;28.63;;;7.03;;
76073;SDS011;64776;42.636;24.358;2023-06-10T00:46:45;25.85;;;6.97;;
76073;SDS011;64776;42.636;24.358;2023-06-10T00:49:46;23.70;;;7.45;;
76073;SDS011;64776;42.636;24.358;2023-06-10T00:52:48;20.75;;;7.72;;
76073;SDS011;64776;42.636;24.358;2023-06-10T00:55:50;16.88;;;6.15;;
76073;SDS011;64776;42.636;24.358;2023-06-10T00:58:51;21.90;;;7.45;;
76073;SDS011;64776;42.636;24.358;2023-06-10T01:01:52;32.20;;;9.77;;
76073;SDS011;64776;42.636;24.358;2023-06-10T01:04:53;61.40;;;23.50;;
76073;SDS011;64776;42.636;24.358;2023-06-10T01:07:56;34.83;;;13.20;;
76073;SDS011;64776;42.636;24.358;2023-06-10T01:11:03;31.60;;;8.45;;
76073;SDS011;64776;42.636;24.358;2023-06-10T01:14:07;21.02;;;7.40;;
76073;SDS011;64776;42.636;24.358;2023-06-10T01:17:10;15.55;;;6.35;;
76073;SDS011;64776;42.636;24.358;2023-06-10T01:20:11;23.17;;;7.13;;
76073;SDS011;64776;42.636;24.358;2023-06-10T01:23:13;19.67;;;7.10;;
76073;SDS011;64776;42.636;24.358;2023-06-10T01:26:15;18.83;;;6.82;;
76073;SDS011;64776;42.636;24.358;2023-06-10T01:29:17;20.98;;;7.07;;
76073;SDS011;64776;42.636;24.358;2023-06-10T01:32:23;20.25;;;7.38;;
76073;SDS011;64776;42.636;24.358;2023-06-10T01:35:29;19.45;;;7.25;;
76073;SDS011;64776;42.636;24.358;2023-06-10T01:38:36;20.92;;;8.15;;
76073;SDS011;64776;42.636;24.358;2023-06-10T01:41:50;21.58;;;7.80;;
76073;SDS011;64776;42.636;24.358;2023-06-10T01:44:53;17.15;;;7.28;;
76073;SDS011;64776;42.636;24.358;2023-06-10T01:47:54;16.25;;;7.40;;
76073;SDS011;64776;42.636;24.358;2023-06-10T01:50:54;19.90;;;7.55;;
76073;SDS011;64776;42.636;24.358;2023-06-10T01:53:57;22.02;;;9.43;;
76073;SDS011;64776;42.636;24.358;2023-06-10T01:56:57;15.90;;;7.75;;
76073;SDS011;64776;42.636;24.358;2023-06-10T01:59:58;17.83;;;8.05;;
76073;SDS011;64776;42.636;24.358;2023-06-10T02:02:59;16.98;;;7.57;;
76073;SDS011;64776;42.636;24.358;2023-06-10T02:06:00;16.25;;;7.32;;
76073;SDS011;64776;42.636;24.358;2023-06-10T02:09:02;14.05;;;6.68;;
76073;SDS011;64776;42.636;24.358;2023-06-10T02:12:03;13.18;;;6.20;;
76073;SDS011;64776;42.636;24.358;2023-06-10T02:15:05;15.02;;;6.47;;
76073;SDS011;64776;42.636;24.358;2023-06-10T02:18:05;18.42;;;8.27;;
76073;SDS011;64776;42.636;24.358;2023-06-10T02:21:06;15.38;;;6.85;;
76073;SDS011;64776;42.636;24.358;2023-06-10T02:24:08;17.75;;;7.40;;
76073;SDS011;64776;42.636;24.358;2023-06-10T02:27:09;15.07;;;7.47;;
76073;SDS011;64776;42.636;24.358;2023-06-10T02:30:10;15.20;;;7.38;;
76073;SDS011;64776;42.636;24.358;2023-06-10T02:33:12;14.23;;;6.32;;
76073;SDS011;64776;42.636;24.358;2023-06-10T02:36:12;19.10;;;11.43;;
76073;SDS011;64776;42.636;24.358;2023-06-10T02:39:15;15.48;;;7.78;;
76073;SDS011;64776;42.636;24.358;2023-06-10T02:42:15;16.95;;;8.07;;
76073;SDS011;64776;42.636;24.358;2023-06-10T02:45:16;17.55;;;8.32;;
76073;SDS011;64776;42.636;24.358;2023-06-10T02:48:17;17.30;;;9.15;;
76073;SDS011;64776;42.636;24.358;2023-06-10T02:51:17;18.90;;;8.63;;
76073;SDS011;64776;42.636;24.358;2023-06-10T02:54:20;33.72;;;17.10;;
76073;SDS011;64776;42.636;24.358;2023-06-10T02:57:21;26.13;;;12.00;;
76073;SDS011;64776;42.636;24.358;2023-06-10T03:00:21;27.05;;;13.57;;
76073;SDS011;64776;42.636;24.358;2023-06-10T03:03:22;23.02;;;12.05;;
76073;SDS011;64776;42.636;24.358;2023-06-10T03:06:23;21.40;;;11.80;;
76073;SDS011;64776;42.636;24.358;2023-06-10T03:09:25;20.63;;;11.00;;
76073;SDS011;64776;42.636;24.358;2023-06-10T03:12:27;14.60;;;7.57;;
76073;SDS011;64776;42.636;24.358;2023-06-10T03:15:28;17.00;;;8.70;;
76073;SDS011;64776;42.636;24.358;2023-06-10T03:18:28;14.77;;;8.20;;
76073;SDS011;64776;42.636;24.358;2023-06-10T03:21:29;18.55;;;9.05;;
76073;SDS011;64776;42.636;24.358;2023-06-10T03:24:31;15.02;;;8.18;;
76073;SDS011;64776;42.636;24.358;2023-06-10T03:27:32;20.75;;;11.85;;
76073;SDS011;64776;42.636;24.358;2023-06-10T03:30:33;23.00;;;11.40;;
76073;SDS011;64776;42.636;24.358;2023-06-10T03:33:34;22.92;;;13.10;;
76073;SDS011;64776;42.636;24.358;2023-06-10T03:36:35;30.08;;;14.35;;
76073;SDS011;64776;42.636;24.358;2023-06-10T03:39:38;25.45;;;14.30;;
76073;SDS011;64776;42.636;24.358;2023-06-10T03:42:39;17.38;;;9.82;;
76073;SDS011;64776;42.636;24.358;2023-06-10T03:45:40;18.55;;;10.13;;
76073;SDS011;64776;42.636;24.358;2023-06-10T03:48:40;25.23;;;14.30;;
76073;SDS011;64776;42.636;24.358;2023-06-10T03:51:41;40.97;;;19.80;;
76073;SDS011;64776;42.636;24.358;2023-06-10T03:54:43;29.92;;;15.95;;
76073;SDS011;64776;42.636;24.358;2023-06-10T03:57:44;31.35;;;17.63;;
76073;SDS011;64776;42.636;24.358;2023-06-10T04:00:45;28.25;;;16.45;;
76073;SDS011;64776;42.636;24.358;2023-06-10T04:03:46;18.30;;;9.55;;
76073;SDS011;64776;42.636;24.358;2023-06-10T04:06:46;23.65;;;11.43;;
76073;SDS011;64776;42.636;24.358;2023-06-10T04:09:48;36.53;;;15.82;;
76073;SDS011;64776;42.636;24.358;2023-06-10T04:12:49;25.30;;;11.60;;
76073;SDS011;64776;42.636;24.358;2023-06-10T04:15:51;19.95;;;9.57;;
76073;SDS011;64776;42.636;24.358;2023-06-10T04:18:52;21.58;;;11.30;;
76073;SDS011;64776;42.636;24.358;2023-06-10T04:21:53;223.57;;;101.60;;
76073;SDS011;64776;42.636;24.358;2023-06-10T04:24:55;204.75;;;73.45;;
76073;SDS011;64776;42.636;24.358;2023-06-10T04:27:56;55.53;;;29.52;;
76073;SDS011;64776;42.636;24.358;2023-06-10T04:30:56;82.60;;;39.33;;
76073;SDS011;64776;42.636;24.358;2023-06-10T04:33:57;41.55;;;25.92;;
76073;SDS011;64776;42.636;24.358;2023-06-10T04:36:58;153.50;;;70.88;;
76073;SDS011;64776;42.636;24.358;2023-06-10T04:40:00;60.85;;;33.17;;
76073;SDS011;64776;42.636;24.358;2023-06-10T04:43:01;34.17;;;21.30;;
76073;SDS011;64776;42.636;24.358;2023-06-10T04:46:02;20.75;;;12.27;;
76073;SDS011;64776;42.636;24.358;2023-06-10T04:49:02;21.27;;;13.27;;
76073;SDS011;64776;42.636;24.358;2023-06-10T04:52:04;65.38;;;39.10;;
76073;SDS011;64776;42.636;24.358;2023-06-10T04:55:07;53.90;;;32.38;;
76073;SDS011;64776;42.636;24.358;2023-06-10T04:58:09;41.40;;;26.83;;
76073;SDS011;64776;42.636;24.358;2023-06-10T05:01:09;47.67;;;28.13;;
76073;SDS011;64776;42.636;24.358;2023-06-10T05:04:10;45.38;;;27.48;;
76073;SDS011;64776;42.636;24.358;2023-06-10T05:07:11;51.67;;;30.60;;
76073;SDS011;64776;42.636;24.358;2023-06-10T05:10:13;45.83;;;28.15;;
76073;SDS011;64776;42.636;24.358;2023-06-10T05:13:16;67.75;;;36.00;;
76073;SDS011;64776;42.636;24.358;2023-06-10T05:16:17;75.05;;;42.15;;
76073;SDS011;64776;42.636;24.358;2023-06-10T05:19:18;58.53;;;36.10;;
76073;SDS011;64776;42.636;24.358;2023-06-10T05:22:18;52.65;;;31.85;;
76073;SDS011;64776;42.636;24.358;2023-06-10T05:25:21;49.88;;;30.70;;
76073;SDS011;64776;42.636;24.358;2023-06-10T05:28:23;66.93;;;36.90;;
76073;SDS011;64776;42.636;24.358;2023-06-10T05:31:24;67.93;;;38.47;;
76073;SDS011;64776;42.636;24.358;2023-06-10T05:34:25;67.45;;;41.00;;
76073;SDS011;64776;42.636;24.358;2023-06-10T05:37:26;38.35;;;20.95;;
76073;SDS011;64776;42.636;24.358;2023-06-10T05:40:28;41.08;;;23.25;;
76073;SDS011;64776;42.636;24.358;2023-06-10T05:43:29;28.20;;;16.27;;
76073;SDS011;64776;42.636;24.358;2023-06-10T05:46:29;20.73;;;11.17;;
76073;SDS011;64776;42.636;24.358;2023-06-10T05:49:30;23.20;;;12.25;;
76073;SDS011;64776;42.636;24.358;2023-06-10T05:52:31;54.78;;;31.60;;
76073;SDS011;64776;42.636;24.358;2023-06-10T05:55:33;62.40;;;33.28;;
76073;SDS011;64776;42.636;24.358;2023-06-10T05:58:37;45.67;;;27.15;;
76073;SDS011;64776;42.636;24.358;2023-06-10T06:01:38;37.50;;;21.25;;
76073;SDS011;64776;42.636;24.358;2023-06-10T06:04:39;27.35;;;16.08;;
76073;SDS011;64776;42.636;24.358;2023-06-10T06:07:39;24.40;;;13.40;;
76073;SDS011;64776;42.636;24.358;2023-06-10T06:10:42;36.58;;;18.80;;
76073;SDS011;64776;42.636;24.358;2023-06-10T06:13:43;26.08;;;15.05;;
76073;SDS011;64776;42.636;24.358;2023-06-10T06:16:44;25.77;;;13.88;;
76073;SDS011;64776;42.636;24.358;2023-06-10T06:19:44;22.20;;;12.40;;
76073;SDS011;64776;42.636;24.358;2023-06-10T06:22:50;27.40;;;15.23;;
76073;SDS011;64776;42.636;24.358;2023-06-10T06:25:52;24.73;;;13.50;;
76073;SDS011;64776;42.636;24.358;2023-06-10T06:28:53;30.55;;;16.65;;
76073;SDS011;64776;42.636;24.358;2023-06-10T06:31:54;17.17;;;8.32;;
76073;SDS011;64776;42.636;24.358;2023-06-10T06:34:55;11.65;;;5.43;;
76073;SDS011;64776;42.636;24.358;2023-06-10T06:37:55;10.55;;;5.10;;
76073;SDS011;64776;42.636;24.358;2023-06-10T06:40:58;13.88;;;7.00;;
76073;SDS011;64776;42.636;24.358;2023-06-10T06:43:59;13.10;;;6.30;;
76073;SDS011;64776;42.636;24.358;2023-06-10T06:47:00;22.33;;;10.75;;
76073;SDS011;64776;42.636;24.358;2023-06-10T06:50:00;25.17;;;13.50;;
76073;SDS011;64776;42.636;24.358;2023-06-10T06:53:01;30.63;;;16.58;;
76073;SDS011;64776;42.636;24.358;2023-06-10T06:56:03;28.73;;;17.77;;
76073;SDS011;64776;42.636;24.358;2023-06-10T06:59:05;21.92;;;13.32;;
76073;SDS011;64776;42.636;24.358;2023-06-10T07:02:05;26.17;;;15.02;;
76073;SDS011;64776;42.636;24.358;2023-06-10T07:05:06;28.65;;;14.80;;
76073;SDS011;64776;42.636;24.358;2023-06-10T07:08:07;27.55;;;14.80;;
76073;SDS011;64776;42.636;24.358;2023-06-10T07:11:10;32.33;;;18.50;;
76073;SDS011;64776;42.636;24.358;2023-06-10T07:14:11;34.03;;;20.70;;
76073;SDS011;64776;42.636;24.358;2023-06-10T07:17:12;21.80;;;12.57;;
76073;SDS011;64776;42.636;24.358;2023-06-10T07:20:12;18.30;;;8.52;;
76073;SDS011;64776;42.636;24.358;2023-06-10T07:23:41;16.75;;;8.70;;
76073;SDS011;64776;42.636;24.358;2023-06-10T07:26:43;16.40;;;8.35;;
76073;SDS011;64776;42.636;24.358;2023-06-10T07:29:44;36.85;;;17.98;;
76073;SDS011;64776;42.636;24.358;2023-06-10T07:32:45;21.55;;;12.73;;
76073;SDS011;64776;42.636;24.358;2023-06-10T07:35:45;19.45;;;10.48;;
76073;SDS011;64776;42.636;24.358;2023-06-10T07:38:47;19.73;;;10.40;;
76073;SDS011;64776;42.636;24.358;2023-06-10T07:41:50;21.48;;;11.57;;
76073;SDS011;64776;42.636;24.358;2023-06-10T07:44:50;21.10;;;11.77;;
76073;SDS011;64776;42.636;24.358;2023-06-10T07:47:51;27.42;;;15.60;;
76073;SDS011;64776;42.636;24.358;2023-06-10T07:50:53;30.05;;;15.48;;
76073;SDS011;64776;42.636;24.358;2023-06-10T07:53:54;19.13;;;9.30;;
76073;SDS011;64776;42.636;24.358;2023-06-10T07:56:56;14.68;;;7.90;;
76073;SDS011;64776;42.636;24.358;2023-06-10T07:59:57;12.23;;;5.90;;
76073;SDS011;64776;42.636;24.358;2023-06-10T08:02:58;21.33;;;8.73;;
76073;SDS011;64776;42.636;24.358;2023-06-10T08:05:58;12.23;;;5.63;;
76073;SDS011;64776;42.636;24.358;2023-06-10T08:08:59;12.02;;;6.47;;
76073;SDS011;64776;42.636;24.358;2023-06-10T08:12:01;21.38;;;12.02;;
76073;SDS011;64776;42.636;24.358;2023-06-10T08:15:03;19.45;;;10.18;;
76073;SDS011;64776;42.636;24.358;2023-06-10T08:18:04;26.00;;;12.07;;
76073;SDS011;64776;42.636;24.358;2023-06-10T08:29:02;17.27;;;9.40;;
76073;SDS011;64776;42.636;24.358;2023-06-10T08:32:03;18.42;;;10.57;;
76073;SDS011;64776;42.636;24.358;2023-06-10T08:35:05;16.50;;;7.90;;
76073;SDS011;64776;42.636;24.358;2023-06-10T08:38:06;8.13;;;3.88;;
76073;SDS011;64776;42.636;24.358;2023-06-10T08:41:07;9.07;;;3.55;;
76073;SDS011;64776;42.636;24.358;2023-06-10T08:44:12;7.35;;;2.92;;
76073;SDS011;64776;42.636;24.358;2023-06-10T08:47:17;13.63;;;6.40;;
76073;SDS011;64776;42.636;24.358;2023-06-10T08:50:19;12.32;;;5.25;;
76073;SDS011;64776;42.636;24.358;2023-06-10T08:53:21;9.38;;;3.53;;
76073;SDS011;64776;42.636;24.358;2023-06-10T08:56:22;8.93;;;3.90;;
76073;SDS011;64776;42.636;24.358;2023-06-10T08:59:27;9.07;;;3.63;;
76073;SDS011;64776;42.636;24.358;2023-06-10T09:02:29;9.80;;;3.90;;
76073;SDS011;64776;42.636;24.358;2023-06-10T09:05:33;11.77;;;5.07;;
76073;SDS011;64776;42.636;24.358;2023-06-10T09:08:34;11.77;;;5.60;;
76073;SDS011;64776;42.636;24.358;2023-06-10T09:11:35;12.90;;;6.63;;
76073;SDS011;64776;42.636;24.358;2023-06-10T09:14:38;16.23;;;6.97;;
76073;SDS011;64776;42.636;24.358;2023-06-10T09:17:39;16.05;;;7.60;;
76073;SDS011;64776;42.636;24.358;2023-06-10T09:20:41;14.63;;;7.22;;
76073;SDS011;64776;42.636;24.358;2023-06-10T09:23:43;11.63;;;5.53;;
76073;SDS011;64776;42.636;24.358;2023-06-10T09:26:44;12.93;;;6.72;;
76073;SDS011;64776;42.636;24.358;2023-06-10T09:29:47;8.45;;;2.97;;
76073;SDS011;64776;42.636;24.358;2023-06-10T09:32:51;9.43;;;4.20;;
76073;SDS011;64776;42.636;24.358;2023-06-10T09:35:53;15.60;;;7.20;;
76073;SDS011;64776;42.636;24.358;2023-06-10T09:38:56;14.70;;;6.53;;
76073;SDS011;64776;42.636;24.358;2023-06-10T09:41:57;11.68;;;5.10;;
76073;SDS011;64776;42.636;24.358;2023-06-10T09:44:59;8.95;;;3.95;;
76073;SDS011;64776;42.636;24.358;2023-06-10T09:48:00;31.77;;;17.15;;
76073;SDS011;64776;42.636;24.358;2023-06-10T09:51:01;11.13;;;5.25;;
76073;SDS011;64776;42.636;24.358;2023-06-10T09:54:02;8.18;;;3.95;;
76073;SDS011;64776;42.636;24.358;2023-06-10T09:57:06;8.23;;;2.58;;
76073;SDS011;64776;42.636;24.358;2023-06-10T10:00:10;10.55;;;4.47;;
76073;SDS011;64776;42.636;24.358;2023-06-10T10:03:12;13.90;;;6.78;;
76073;SDS011;64776;42.636;24.358;2023-06-10T10:06:23;11.63;;;5.45;;
76073;SDS011;64776;42.636;24.358;2023-06-10T10:09:25;17.55;;;7.80;;
76073;SDS011;64776;42.636;24.358;2023-06-10T10:12:26;11.85;;;5.50;;
76073;SDS011;64776;42.636;24.358;2023-06-10T10:15:31;9.15;;;3.78;;
76073;SDS011;64776;42.636;24.358;2023-06-10T10:18:33;8.60;;;4.05;;
76073;SDS011;64776;42.636;24.358;2023-06-10T10:21:37;5.15;;;1.83;;
76073;SDS011;64776;42.636;24.358;2023-06-10T10:24:42;4.28;;;1.48;;
76073;SDS011;64776;42.636;24.358;2023-06-10T10:27:48;7.45;;;2.90;;
76073;SDS011;64776;42.636;24.358;2023-06-10T10:30:54;3.42;;;1.10;;
76073;SDS011;64776;42.636;24.358;2023-06-10T10:33:59;11.32;;;3.03;;
76073;SDS011;64776;42.636;24.358;2023-06-10T10:37:01;5.95;;;2.42;;
76073;SDS011;64776;42.636;24.358;2023-06-10T10:40:03;5.70;;;2.03;;
76073;SDS011;64776;42.636;24.358;2023-06-10T10:43:05;7.28;;;2.42;;
76073;SDS011;64776;42.636;24.358;2023-06-10T10:46:11;6.13;;;2.38;;
76073;SDS011;64776;42.636;24.358;2023-06-10T10:49:13;5.57;;;1.83;;
76073;SDS011;64776;42.636;24.358;2023-06-10T10:52:15;5.65;;;1.75;;
76073;SDS011;64776;42.636;24.358;2023-06-10T10:55:16;5.95;;;2.35;;
76073;SDS011;64776;42.636;24.358;2023-06-10T10:58:16;7.75;;;2.13;;
76073;SDS011;64776;42.636;24.358;2023-06-10T11:01:26;8.05;;;2.38;;
76073;SDS011;64776;42.636;24.358;2023-06-10T11:04:44;5.90;;;2.40;;
76073;SDS011;64776;42.636;24.358;2023-06-10T11:07:51;6.63;;;2.75;;
76073;SDS011;64776;42.636;24.358;2023-06-10T11:10:53;5.05;;;2.20;;
76073;SDS011;64776;42.636;24.358;2023-06-10T11:14:09;5.00;;;1.60;;
76073;SDS011;64776;42.636;24.358;2023-06-10T11:17:19;4.90;;;2.00;;
76073;SDS011;64776;42.636;24.358;2023-06-10T11:23:45;5.47;;;2.08;;
76073;SDS011;64776;42.636;24.358;2023-06-10T11:26:46;4.83;;;1.40;;
76073;SDS011;64776;42.636;24.358;2023-06-10T11:29:57;4.82;;;1.50;;
76073;SDS011;64776;42.636;24.358;2023-06-10T11:33:00;10.18;;;4.25;;
76073;SDS011;64776;42.636;24.358;2023-06-10T11:36:01;6.00;;;2.33;;
76073;SDS011;64776;42.636;24.358;2023-06-10T11:39:06;6.40;;;2.03;;
76073;SDS011;64776;42.636;24.358;2023-06-10T11:42:07;5.90;;;2.00;;
76073;SDS011;64776;42.636;24.358;2023-06-10T11:45:09;5.53;;;2.42;;
76073;SDS011;64776;42.636;24.358;2023-06-10T11:48:16;8.20;;;2.40;;
76073;SDS011;64776;42.636;24.358;2023-06-10T11:51:16;6.78;;;2.13;;
76073;SDS011;64776;42.636;24.358;2023-06-10T11:54:18;8.43;;;2.15;;
76073;SDS011;64776;42.636;24.358;2023-06-10T11:57:18;9.80;;;2.35;;
76073;SDS011;64776;42.636;24.358;2023-06-10T12:00:19;5.07;;;1.90;;
76073;SDS011;64776;42.636;24.358;2023-06-10T12:03:22;5.95;;;2.60;;
76073;SDS011;64776;42.636;24.358;2023-06-10T12:06:24;7.38;;;1.90;;
76073;SDS011;64776;42.636;24.358;2023-06-10T12:09:25;6.00;;;2.03;;
76073;SDS011;64776;42.636;24.358;2023-06-10T12:12:27;5.93;;;2.30;;
76073;SDS011;64776;42.636;24.358;2023-06-10T12:15:28;6.97;;;2.65;;
76073;SDS011;64776;42.636;24.358;2023-06-10T12:18:30;16.13;;;8.77;;
76073;SDS011;64776;42.636;24.358;2023-06-10T12:21:31;7.88;;;2.63;;
76073;SDS011;64776;42.636;24.358;2023-06-10T12:24:33;6.85;;;2.63;;
76073;SDS011;64776;42.636;24.358;2023-06-10T12:27:33;6.97;;;1.90;;
76073;SDS011;64776;42.636;24.358;2023-06-10T12:30:35;6.93;;;2.47;;
76073;SDS011;64776;42.636;24.358;2023-06-10T12:33:37;12.88;;;5.68;;
76073;SDS011;64776;42.636;24.358;2023-06-10T12:36:39;7.60;;;2.25;;
76073;SDS011;64776;42.636;24.358;2023-06-10T12:39:51;7.03;;;3.03;;
76073;SDS011;64776;42.636;24.358;2023-06-10T12:42:52;6.50;;;2.15;;
76073;SDS011;64776;42.636;24.358;2023-06-10T12:45:52;7.93;;;3.03;;
76073;SDS011;64776;42.636;24.358;2023-06-10T12:48:55;8.32;;;3.65;;
76073;SDS011;64776;42.636;24.358;2023-06-10T12:51:56;8.90;;;4.28;;
76073;SDS011;64776;42.636;24.358;2023-06-10T12:54:56;12.25;;;6.10;;
76073;SDS011;64776;42.636;24.358;2023-06-10T12:57:57;6.32;;;2.83;;
76073;SDS011;64776;42.636;24.358;2023-06-10T13:00:58;14.30;;;7.00;;
76073;SDS011;64776;42.636;24.358;2023-06-10T13:04:00;11.20;;;5.72;;
76073;SDS011;64776;42.636;24.358;2023-06-10T13:07:01;12.00;;;5.90;;
76073;SDS011;64776;42.636;24.358;2023-06-10T13:10:02;9.45;;;4.82;;
76073;SDS011;64776;42.636;24.358;2023-06-10T13:13:03;18.45;;;8.93;;
76073;SDS011;64776;42.636;24.358;2023-06-10T13:16:04;19.05;;;8.45;;
76073;SDS011;64776;42.636;24.358;2023-06-10T13:19:07;8.43;;;4.05;;
76073;SDS011;64776;42.636;24.358;2023-06-10T13:22:08;7.95;;;3.72;;
76073;SDS011;64776;42.636;24.358;2023-06-10T13:25:09;9.50;;;4.13;;
76073;SDS011;64776;42.636;24.358;2023-06-10T13:28:10;7.20;;;3.47;;
76073;SDS011;64776;42.636;24.358;2023-06-10T13:31:12;10.05;;;4.70;;
76073;SDS011;64776;42.636;24.358;2023-06-10T13:34:14;18.25;;;8.98;;
76073;SDS011;64776;42.636;24.358;2023-06-10T13:37:15;19.67;;;10.20;;
76073;SDS011;64776;42.636;24.358;2023-06-10T13:40:16;74.03;;;35.28;;
76073;SDS011;64776;42.636;24.358;2023-06-10T13:43:17;14.57;;;7.63;;
76073;SDS011;64776;42.636;24.358;2023-06-10T13:46:18;26.17;;;11.85;;
76073;SDS011;64776;42.636;24.358;2023-06-10T13:49:20;13.23;;;6.32;;
76073;SDS011;64776;42.636;24.358;2023-06-10T13:52:21;9.20;;;4.13;;
76073;SDS011;64776;42.636;24.358;2023-06-10T13:55:22;12.18;;;7.28;;
76073;SDS011;64776;42.636;24.358;2023-06-10T13:58:22;28.08;;;15.55;;
76073;SDS011;64776;42.636;24.358;2023-06-10T14:01:23;9.68;;;4.60;;
76073;SDS011;64776;42.636;24.358;2023-06-10T14:04:25;6.45;;;2.92;;
76073;SDS011;64776;42.636;24.358;2023-06-10T14:07:26;10.05;;;3.65;;
76073;SDS011;64776;42.636;24.358;2023-06-10T14:10:27;14.15;;;4.72;;
76073;SDS011;64776;42.636;24.358;2023-06-10T14:13:28;10.95;;;5.40;;
76073;SDS011;64776;42.636;24.358;2023-06-10T14:16:29;9.13;;;3.90;;
76073;SDS011;64776;42.636;24.358;2023-06-10T14:19:31;9.50;;;4.20;;
76073;SDS011;64776;42.636;24.358;2023-06-10T14:22:31;8.27;;;3.58;;
76073;SDS011;64776;42.636;24.358;2023-06-10T14:25:32;6.63;;;3.38;;
76073;SDS011;64776;42.636;24.358;2023-06-10T14:28:33;9.48;;;4.05;;
76073;SDS011;64776;42.636;24.358;2023-06-10T14:31:34;7.07;;;3.13;;
76073;SDS011;64776;42.636;24.358;2023-06-10T14:34:36;8.88;;;3.25;;
76073;SDS011;64776;42.636;24.358;2023-06-10T14:37:37;9.43;;;3.85;;
76073;SDS011;64776;42.636;24.358;2023-06-10T14:40:37;7.18;;;2.85;;
76073;SDS011;64776;42.636;24.358;2023-06-10T14:43:38;7.05;;;3.20;;
76073;SDS011;64776;42.636;24.358;2023-06-10T14:46:39;8.32;;;4.00;;
76073;SDS011;64776;42.636;24.358;2023-06-10T14:49:41;9.23;;;4.32;;
76073;SDS011;64776;42.636;24.358;2023-06-10T14:52:42;17.80;;;9.65;;
76073;SDS011;64776;42.636;24.358;2023-06-10T14:55:43;11.48;;;6.22;;
76073;SDS011;64776;42.636;24.358;2023-06-10T14:58:43;12.70;;;6.13;;
76073;SDS011;64776;42.636;24.358;2023-06-10T15:01:44;9.73;;;4.05;;
76073;SDS011;64776;42.636;24.358;2023-06-10T15:04:46;10.77;;;5.05;;
76073;SDS011;64776;42.636;24.358;2023-06-10T15:07:48;15.73;;;9.20;;
76073;SDS011;64776;42.636;24.358;2023-06-10T15:10:49;26.40;;;16.63;;
76073;SDS011;64776;42.636;24.358;2023-06-10T15:13:50;24.65;;;14.60;;
76073;SDS011;64776;42.636;24.358;2023-06-10T15:16:50;19.45;;;10.15;;
76073;SDS011;64776;42.636;24.358;2023-06-10T15:19:52;20.80;;;10.98;;
76073;SDS011;64776;42.636;24.358;2023-06-10T15:22:53;16.65;;;8.13;;
76073;SDS011;64776;42.636;24.358;2023-06-10T15:25:54;12.63;;;6.30;;
76073;SDS011;64776;42.636;24.358;2023-06-10T15:28:55;15.73;;;7.32;;
76073;SDS011;64776;42.636;24.358;2023-06-10T15:31:55;14.50;;;6.90;;
76073;SDS011;64776;42.636;24.358;2023-06-10T15:34:58;14.07;;;6.43;;
76073;SDS011;64776;42.636;24.358;2023-06-10T15:37:59;14.55;;;6.88;;
76073;SDS011;64776;42.636;24.358;2023-06-10T15:40:59;21.85;;;11.68;;
76073;SDS011;64776;42.636;24.358;2023-06-10T15:44:00;14.00;;;6.88;;
76073;SDS011;64776;42.636;24.358;2023-06-10T15:47:01;11.65;;;5.88;;
76073;SDS011;64776;42.636;24.358;2023-06-10T15:50:04;11.75;;;5.60;;
76073;SDS011;64776;42.636;24.358;2023-06-10T15:53:06;12.63;;;5.65;;
76073;SDS011;64776;42.636;24.358;2023-06-10T15:56:06;9.88;;;4.80;;
76073;SDS011;64776;42.636;24.358;2023-06-10T15:59:07;17.85;;;9.02;;
76073;SDS011;64776;42.636;24.358;2023-06-10T16:02:08;24.65;;;14.43;;
76073;SDS011;64776;42.636;24.358;2023-06-10T16:05:10;19.50;;;9.80;;
76073;SDS011;64776;42.636;24.358;2023-06-10T16:08:11;23.33;;;11.75;;
76073;SDS011;64776;42.636;24.358;2023-06-10T16:11:12;18.95;;;9.70;;
76073;SDS011;64776;42.636;24.358;2023-06-10T16:14:13;83.90;;;40.75;;
76073;SDS011;64776;42.636;24.358;2023-06-10T16:17:13;27.85;;;14.80;;
76073;SDS011;64776;42.636;24.358;2023-06-10T16:20:16;12.15;;;6.50;;
76073;SDS011;64776;42.636;24.358;2023-06-10T16:23:16;13.65;;;7.82;;
76073;SDS011;64776;42.636;24.358;2023-06-10T16:26:17;34.45;;;18.35;;
76073;SDS011;64776;42.636;24.358;2023-06-10T16:29:18;28.63;;;15.65;;
76073;SDS011;64776;42.636;24.358;2023-06-10T16:32:19;36.17;;;19.90;;
76073;SDS011;64776;42.636;24.358;2023-06-10T16:35:21;52.70;;;30.05;;
76073;SDS011;64776;42.636;24.358;2023-06-10T16:38:22;30.23;;;15.70;;
76073;SDS011;64776;42.636;24.358;2023-06-10T16:41:23;19.63;;;10.85;;
76073;SDS011;64776;42.636;24.358;2023-06-10T16:44:24;27.30;;;17.40;;
76073;SDS011;64776;42.636;24.358;2023-06-10T16:47:25;125.00;;;90.70;;
76073;SDS011;64776;42.636;24.358;2023-06-10T16:50:27;88.60;;;34.60;;
76073;SDS011;64776;42.636;24.358;2023-06-10T16:53:28;45.78;;;33.08;;
76073;SDS011;64776;42.636;24.358;2023-06-10T16:56:28;31.75;;;19.02;;
76073;SDS011;64776;42.636;24.358;2023-06-10T16:59:29;61.10;;;42.53;;
76073;SDS011;64776;42.636;24.358;2023-06-10T17:02:33;26.65;;;15.85;;
76073;SDS011;64776;42.636;24.358;2023-06-10T17:05:35;42.72;;;23.27;;
76073;SDS011;64776;42.636;24.358;2023-06-10T17:08:36;44.40;;;31.60;;
76073;SDS011;64776;42.636;24.358;2023-06-10T17:11:37;15.98;;;8.45;;
76073;SDS011;64776;42.636;24.358;2023-06-10T17:14:37;25.27;;;17.35;;
76073;SDS011;64776;42.636;24.358;2023-06-10T17:17:38;19.48;;;10.02;;
76073;SDS011;64776;42.636;24.358;2023-06-10T17:20:40;16.50;;;8.13;;
76073;SDS011;64776;42.636;24.358;2023-06-10T17:23:41;19.20;;;11.00;;
76073;SDS011;64776;42.636;24.358;2023-06-10T17:26:43;20.60;;;11.75;;
76073;SDS011;64776;42.636;24.358;2023-06-10T17:29:44;14.65;;;8.13;;
76073;SDS011;64776;42.636;24.358;2023-06-10T17:32:45;18.85;;;8.98;;
76073;SDS011;64776;42.636;24.358;2023-06-10T17:35:47;16.02;;;8.57;;
76073;SDS011;64776;42.636;24.358;2023-06-10T17:38:48;15.43;;;7.22;;
76073;SDS011;64776;42.636;24.358;2023-06-10T17:41:51;14.52;;;8.05;;
76073;SDS011;64776;42.636;24.358;2023-06-10T17:44:55;14.07;;;6.90;;
76073;SDS011;64776;42.636;24.358;2023-06-10T17:47:55;18.95;;;7.70;;
76073;SDS011;64776;42.636;24.358;2023-06-10T17:51:02;22.13;;;11.30;;
76073;SDS011;64776;42.636;24.358;2023-06-10T17:54:03;21.92;;;10.52;;